BAW21B OMDB-EGLL
Flight info
| Callsign | BAW21B |
|---|---|
| Flight time | N/A |
| Altitude | 34000 |
| Route | ANVIX L223 TARDI N629 BOTAM Y855 LAKLU Q204 NALKI G652 TOKRA DCT ALROK/N0499F360 DCT BOSOB DCT ITRUX Y511 PMA Z712 WEJ L677 MENLI/N0498F380 L677 GESON Q777 RASDA DCT OTHON DCT VAXOS DCT RDS UL609 MES DCT FSK DCT DISOR DCT LONTA UL608 DOLEV DCT SABAD DCT KUBUD DCT SOTOV DCT XEBIX DCT USUDO DCT LIRSU DCT DENUT L608 COA/N0434F180 L179 SASKI L608 LOGAN |
| Aircraft | A35K/H-SDE2E3GHIJ3J4J5LM1ORWXY/LB1D1 |
Departure
| Time | 2026-04-25 20:39 |
|---|---|
| Airport | Dubai International Airport (OMDB) |
Arrival
| Time | N/A |
|---|---|
| Airport | London Heathrow Airport (EGLL) |
| Time | Latitude | Longitude | Altitude | Speed | Heading |
|---|---|---|---|---|---|
| 2026-04-25 20:16 | 25.24260 | 55.37518 | 26 ft | 0 kts | 211° |
| 2026-04-25 20:30 | 25.24261 | 55.37519 | 26 ft | 1 kts | 211° |
| 2026-04-25 20:30 | 25.24282 | 55.37533 | 27 ft | 4 kts | 211° |
| 2026-04-25 20:30 | 25.24305 | 55.37549 | 26 ft | 4 kts | 211° |
| 2026-04-25 20:30 | 25.24328 | 55.37560 | 27 ft | 4 kts | 180° |
| 2026-04-25 20:31 | 25.24352 | 55.37554 | 27 ft | 4 kts | 141° |
| 2026-04-25 20:31 | 25.24365 | 55.37537 | 27 ft | 4 kts | 121° |
| 2026-04-25 20:31 | 25.24380 | 55.37511 | 27 ft | 4 kts | 121° |
| 2026-04-25 20:31 | 25.24384 | 55.37503 | 27 ft | 0 kts | 121° |
| 2026-04-25 20:33 | 25.24382 | 55.37508 | 27 ft | 4 kts | 121° |
| 2026-04-25 20:33 | 25.24366 | 55.37535 | 27 ft | 7 kts | 121° |
| 2026-04-25 20:34 | 25.24314 | 55.37628 | 27 ft | 20 kts | 121° |
| 2026-04-25 20:34 | 25.24264 | 55.37721 | 27 ft | 0 kts | 112° |
| 2026-04-25 20:34 | 25.24264 | 55.37768 | 27 ft | 14 kts | 71° |
| 2026-04-25 20:34 | 25.24345 | 55.37832 | 28 ft | 0 kts | 33° |
| 2026-04-25 20:36 | 25.24367 | 55.37848 | 28 ft | 11 kts | 33° |
| 2026-04-25 20:37 | 25.24470 | 55.37927 | 30 ft | 22 kts | 34° |
| 2026-04-25 20:37 | 25.24594 | 55.38021 | 29 ft | 19 kts | 33° |
| 2026-04-25 20:37 | 25.24620 | 55.38039 | 29 ft | 0 kts | 32° |
| 2026-04-25 20:37 | 25.24628 | 55.38044 | 29 ft | 7 kts | 32° |
| 2026-04-25 20:38 | 25.24708 | 55.38099 | 31 ft | 12 kts | 30° |
| 2026-04-25 20:38 | 25.24789 | 55.38054 | 31 ft | 18 kts | 300° |
| 2026-04-25 20:38 | 25.24928 | 55.37807 | 31 ft | 68 kts | 301° |
| 2026-04-25 20:38 | 25.25285 | 55.37165 | 32 ft | 126 kts | 301° |
| 2026-04-25 20:39 | 25.25838 | 55.36173 | 37 ft | 175 kts | 302° |
| 2026-04-25 20:39 | 25.26481 | 55.35032 | 660 ft | 171 kts | 302° |
| 2026-04-25 20:39 | 25.27116 | 55.33897 | 1228 ft | 176 kts | 302° |
| 2026-04-25 20:39 | 25.27551 | 55.33110 | 1614 ft | 179 kts | 302° |
| 2026-04-25 20:40 | 25.28448 | 55.31486 | 1990 ft | 192 kts | 302° |
| 2026-04-25 20:40 | 25.29107 | 55.30160 | 2273 ft | 203 kts | 293° |
| 2026-04-25 20:40 | 25.29198 | 55.28555 | 2398 ft | 223 kts | 255° |
| 2026-04-25 20:40 | 25.28592 | 55.26906 | 2576 ft | 240 kts | 245° |
| 2026-04-25 20:41 | 25.27822 | 55.25195 | 2818 ft | 256 kts | 245° |
| 2026-04-25 20:41 | 25.27034 | 55.23425 | 3237 ft | 263 kts | 245° |
| 2026-04-25 20:41 | 25.26231 | 55.21586 | 3772 ft | 268 kts | 246° |
| 2026-04-25 20:41 | 25.25423 | 55.19720 | 4336 ft | 270 kts | 245° |
| 2026-04-25 20:42 | 25.24357 | 55.17999 | 4860 ft | 275 kts | 226° |
| 2026-04-25 20:42 | 25.22704 | 55.16914 | 5323 ft | 282 kts | 197° |
| 2026-04-25 20:42 | 25.20733 | 55.16776 | 5806 ft | 289 kts | 173° |
| 2026-04-25 20:42 | 25.18838 | 55.17546 | 6288 ft | 295 kts | 146° |
| 2026-04-25 20:43 | 25.17437 | 55.19181 | 6810 ft | 296 kts | 121° |
| 2026-04-25 20:43 | 25.16446 | 55.21175 | 7343 ft | 298 kts | 116° |
| 2026-04-25 20:43 | 25.15502 | 55.23217 | 7860 ft | 300 kts | 116° |
| 2026-04-25 20:43 | 25.14543 | 55.25272 | 8392 ft | 302 kts | 117° |
| 2026-04-25 20:44 | 25.13569 | 55.27339 | 8930 ft | 303 kts | 117° |
| 2026-04-25 20:44 | 25.12587 | 55.29409 | 9447 ft | 305 kts | 117° |
| 2026-04-25 20:44 | 25.11590 | 55.31485 | 9977 ft | 307 kts | 118° |
| 2026-04-25 20:44 | 25.10589 | 55.33568 | 10523 ft | 307 kts | 118° |
| 2026-04-25 20:45 | 25.09668 | 55.35670 | 10980 ft | 312 kts | 115° |
| 2026-04-25 20:45 | 25.08768 | 55.37903 | 11202 ft | 325 kts | 114° |
| 2026-04-25 20:45 | 25.07833 | 55.40232 | 11426 ft | 338 kts | 115° |
| 2026-04-25 20:45 | 25.06856 | 55.42650 | 11638 ft | 350 kts | 114° |
| 2026-04-25 20:46 | 25.05891 | 55.45161 | 11848 ft | 362 kts | 114° |
| 2026-04-25 20:46 | 25.04904 | 55.47763 | 12049 ft | 373 kts | 114° |
| 2026-04-25 20:46 | 25.03885 | 55.50433 | 12232 ft | 383 kts | 114° |
| 2026-04-25 20:46 | 25.02831 | 55.53172 | 12417 ft | 392 kts | 114° |
| 2026-04-25 20:47 | 25.01662 | 55.55920 | 12632 ft | 399 kts | 120° |
| 2026-04-25 20:47 | 25.00274 | 55.58586 | 12987 ft | 402 kts | 122° |
| 2026-04-25 20:47 | 24.98839 | 55.61240 | 13347 ft | 404 kts | 122° |
| 2026-04-25 20:47 | 24.97410 | 55.63872 | 13699 ft | 407 kts | 122° |
| 2026-04-25 20:48 | 24.95956 | 55.66556 | 14058 ft | 410 kts | 122° |
| 2026-04-25 20:48 | 24.94480 | 55.69252 | 14459 ft | 411 kts | 123° |
| 2026-04-25 20:48 | 24.92857 | 55.71860 | 14814 ft | 413 kts | 127° |
| 2026-04-25 20:48 | 24.91162 | 55.74427 | 15170 ft | 415 kts | 127° |
| 2026-04-25 20:49 | 24.89450 | 55.77001 | 15531 ft | 417 kts | 128° |
| 2026-04-25 20:49 | 24.87730 | 55.79585 | 15890 ft | 419 kts | 127° |
| 2026-04-25 20:49 | 24.86004 | 55.82183 | 16248 ft | 422 kts | 127° |
| 2026-04-25 20:49 | 24.84268 | 55.84798 | 16581 ft | 424 kts | 127° |
| 2026-04-25 20:50 | 24.82518 | 55.87422 | 16922 ft | 426 kts | 128° |
| 2026-04-25 20:50 | 24.80742 | 55.90037 | 17265 ft | 428 kts | 128° |
| 2026-04-25 20:50 | 24.78945 | 55.92659 | 17590 ft | 430 kts | 129° |
| 2026-04-25 20:50 | 24.76973 | 55.95127 | 17899 ft | 431 kts | 135° |
| 2026-04-25 20:51 | 24.74845 | 55.97461 | 18225 ft | 432 kts | 137° |
| 2026-04-25 20:51 | 24.72638 | 55.99724 | 18525 ft | 435 kts | 139° |
| 2026-04-25 20:51 | 24.70392 | 56.01969 | 18833 ft | 437 kts | 139° |
| 2026-04-25 20:51 | 24.68134 | 56.04222 | 19099 ft | 440 kts | 138° |
| 2026-04-25 20:52 | 24.65870 | 56.06504 | 19374 ft | 442 kts | 138° |
| 2026-04-25 20:52 | 24.65135 | 56.07249 | 19476 ft | 443 kts | 138° |
| 2026-04-25 20:52 | 24.61362 | 56.11096 | 19955 ft | 447 kts | 138° |
| 2026-04-25 20:52 | 24.59081 | 56.13440 | 20244 ft | 449 kts | 138° |
| 2026-04-25 20:53 | 24.56886 | 56.15892 | 20498 ft | 452 kts | 133° |
| 2026-04-25 20:53 | 24.54769 | 56.18463 | 20778 ft | 454 kts | 133° |
| 2026-04-25 20:53 | 24.52680 | 56.21077 | 21034 ft | 456 kts | 132° |
| 2026-04-25 20:53 | 24.50600 | 56.23720 | 21267 ft | 459 kts | 131° |
| 2026-04-25 20:54 | 24.48520 | 56.26380 | 21538 ft | 461 kts | 131° |
| 2026-04-25 20:54 | 24.46429 | 56.29057 | 21811 ft | 463 kts | 131° |
| 2026-04-25 20:54 | 24.44331 | 56.31741 | 22061 ft | 465 kts | 131° |
| 2026-04-25 20:54 | 24.42220 | 56.34438 | 22298 ft | 467 kts | 132° |
| 2026-04-25 20:55 | 24.40097 | 56.37142 | 22550 ft | 469 kts | 132° |
| 2026-04-25 20:55 | 24.37965 | 56.39850 | 22792 ft | 470 kts | 132° |
| 2026-04-25 20:55 | 24.35816 | 56.42575 | 23012 ft | 473 kts | 132° |
| 2026-04-25 20:55 | 24.33685 | 56.45276 | 23244 ft | 474 kts | 132° |
| 2026-04-25 20:56 | 24.31520 | 56.48019 | 23457 ft | 477 kts | 132° |
| 2026-04-25 20:56 | 24.29349 | 56.50772 | 23682 ft | 478 kts | 132° |
| 2026-04-25 20:56 | 24.27265 | 56.53630 | 23900 ft | 481 kts | 128° |
| 2026-04-25 20:56 | 24.25295 | 56.56600 | 24104 ft | 483 kts | 126° |
| 2026-04-25 20:57 | 24.23362 | 56.59626 | 24313 ft | 485 kts | 126° |
| 2026-04-25 20:57 | 24.21429 | 56.62663 | 24541 ft | 486 kts | 126° |
| 2026-04-25 20:57 | 24.19478 | 56.65696 | 24737 ft | 488 kts | 127° |
| 2026-04-25 20:57 | 24.17502 | 56.68730 | 24926 ft | 490 kts | 127° |
| 2026-04-25 20:58 | 24.15507 | 56.71759 | 25145 ft | 491 kts | 127° |
| 2026-04-25 20:58 | 24.13492 | 56.74793 | 25336 ft | 493 kts | 127° |
| 2026-04-25 20:58 | 24.12156 | 56.76797 | 25496 ft | 493 kts | 127° |
| 2026-04-25 20:58 | 24.10125 | 56.79840 | 25684 ft | 495 kts | 127° |
| 2026-04-25 20:59 | 24.08011 | 56.82827 | 25863 ft | 496 kts | 132° |
| 2026-04-25 20:59 | 24.05598 | 56.85527 | 26047 ft | 496 kts | 140° |
| 2026-04-25 20:59 | 24.02869 | 56.87824 | 26248 ft | 495 kts | 148° |
| 2026-04-25 20:59 | 23.98824 | 56.90112 | 26498 ft | 495 kts | 161° |
| 2026-04-25 21:00 | 23.95548 | 56.91269 | 26657 ft | 496 kts | 166° |
| 2026-04-25 21:00 | 23.94427 | 56.91610 | 26711 ft | 496 kts | 166° |
| 2026-04-25 21:00 | 23.86555 | 56.93716 | 27154 ft | 499 kts | 168° |
| 2026-04-25 21:01 | 23.83213 | 56.94569 | 27341 ft | 500 kts | 168° |
| 2026-04-25 21:01 | 23.79769 | 56.95457 | 27527 ft | 502 kts | 168° |
| 2026-04-25 21:01 | 23.76410 | 56.96336 | 27726 ft | 504 kts | 168° |
| 2026-04-25 21:01 | 23.72994 | 56.97240 | 27911 ft | 505 kts | 168° |
| 2026-04-25 21:02 | 23.69568 | 56.98153 | 28081 ft | 507 kts | 168° |
| 2026-04-25 21:02 | 23.66140 | 56.99070 | 28253 ft | 509 kts | 168° |
| 2026-04-25 21:02 | 23.62701 | 56.99991 | 28443 ft | 510 kts | 168° |
| 2026-04-25 21:02 | 23.59239 | 57.00920 | 28700 ft | 509 kts | 168° |
| 2026-04-25 21:03 | 23.55798 | 57.01843 | 28899 ft | 510 kts | 168° |
| 2026-04-25 21:03 | 23.52395 | 57.02754 | 29036 ft | 511 kts | 168° |
| 2026-04-25 21:03 | 23.48933 | 57.03679 | 29181 ft | 513 kts | 168° |
| 2026-04-25 21:03 | 23.45464 | 57.04605 | 29390 ft | 513 kts | 168° |
| 2026-04-25 21:04 | 23.41997 | 57.05495 | 29626 ft | 512 kts | 171° |
| 2026-04-25 21:04 | 23.38478 | 57.05984 | 29882 ft | 509 kts | 179° |
| 2026-04-25 21:04 | 23.34953 | 57.05885 | 30109 ft | 506 kts | 188° |
| 2026-04-25 21:04 | 23.31484 | 57.05292 | 30342 ft | 504 kts | 192° |
| 2026-04-25 21:05 | 23.28048 | 57.04550 | 30605 ft | 503 kts | 194° |
| 2026-04-25 21:05 | 23.24627 | 57.03740 | 30857 ft | 503 kts | 195° |
| 2026-04-25 21:05 | 23.21205 | 57.02903 | 31099 ft | 503 kts | 195° |
| 2026-04-25 21:05 | 23.17843 | 57.02079 | 31350 ft | 502 kts | 195° |
| 2026-04-25 21:06 | 23.14431 | 57.01252 | 31591 ft | 502 kts | 195° |
| 2026-04-25 21:06 | 23.11016 | 57.00433 | 31852 ft | 502 kts | 195° |
| 2026-04-25 21:06 | 23.07603 | 56.99622 | 32095 ft | 502 kts | 195° |
| 2026-04-25 21:06 | 23.05337 | 56.99087 | 32240 ft | 502 kts | 194° |
| 2026-04-25 21:07 | 23.00773 | 56.98015 | 32576 ft | 501 kts | 195° |
| 2026-04-25 21:07 | 22.97362 | 56.97220 | 32821 ft | 501 kts | 195° |
| 2026-04-25 21:07 | 22.93954 | 56.96423 | 33083 ft | 500 kts | 195° |
| 2026-04-25 21:07 | 22.90577 | 56.95523 | 33283 ft | 499 kts | 200° |
| 2026-04-25 21:08 | 22.87353 | 56.94178 | 33496 ft | 495 kts | 208° |
| 2026-04-25 21:08 | 22.84388 | 56.92331 | 33698 ft | 490 kts | 218° |
| 2026-04-25 21:08 | 22.81760 | 56.90000 | 33843 ft | 488 kts | 227° |
| 2026-04-25 21:09 | 22.76137 | 56.80917 | 33860 ft | 485 kts | 245° |
| 2026-04-25 21:09 | 22.73094 | 56.74458 | 33860 ft | 485 kts | 245° |
| 2026-04-25 21:10 | 22.70032 | 56.67946 | 33860 ft | 485 kts | 245° |
| 2026-04-25 21:10 | 22.66927 | 56.61456 | 33869 ft | 486 kts | 245° |
| 2026-04-25 21:11 | 22.63798 | 56.54975 | 33900 ft | 486 kts | 244° |
| 2026-04-25 21:11 | 22.60665 | 56.48499 | 33899 ft | 486 kts | 244° |
| 2026-04-25 21:12 | 22.57527 | 56.42016 | 33894 ft | 486 kts | 244° |
| 2026-04-25 21:12 | 22.54913 | 56.36621 | 33892 ft | 487 kts | 244° |
| 2026-04-25 21:13 | 22.51240 | 56.29037 | 33902 ft | 487 kts | 244° |
| 2026-04-25 21:13 | 22.48091 | 56.22545 | 33904 ft | 487 kts | 244° |
| 2026-04-25 21:14 | 22.44959 | 56.16097 | 33907 ft | 488 kts | 244° |
| 2026-04-25 21:14 | 22.41800 | 56.09602 | 33908 ft | 488 kts | 244° |
| 2026-04-25 21:15 | 22.38635 | 56.03101 | 33904 ft | 488 kts | 244° |
| 2026-04-25 21:15 | 22.35462 | 55.96614 | 33903 ft | 488 kts | 244° |
| 2026-04-25 21:16 | 22.32275 | 55.90129 | 33908 ft | 488 kts | 244° |
| 2026-04-25 21:16 | 22.29090 | 55.83651 | 33905 ft | 488 kts | 244° |
| 2026-04-25 21:17 | 22.25901 | 55.77174 | 33908 ft | 488 kts | 244° |
| 2026-04-25 21:17 | 22.22738 | 55.70739 | 33910 ft | 488 kts | 244° |
| 2026-04-25 21:18 | 22.19560 | 55.64265 | 33903 ft | 488 kts | 244° |
| 2026-04-25 21:18 | 22.16612 | 55.57680 | 33903 ft | 485 kts | 252° |
| 2026-04-25 21:19 | 22.15211 | 55.50617 | 33916 ft | 482 kts | 264° |
| 2026-04-25 21:19 | 22.14554 | 55.43426 | 33915 ft | 481 kts | 266° |
| 2026-04-25 21:20 | 22.14103 | 55.37452 | 33915 ft | 480 kts | 266° |
| 2026-04-25 21:20 | 22.13451 | 55.29056 | 33915 ft | 480 kts | 266° |
| 2026-04-25 21:21 | 22.12868 | 55.21891 | 33916 ft | 479 kts | 266° |
| 2026-04-25 21:21 | 22.12274 | 55.14774 | 33914 ft | 479 kts | 266° |
| 2026-04-25 21:22 | 22.11672 | 55.07626 | 33915 ft | 478 kts | 266° |
| 2026-04-25 21:22 | 22.11068 | 55.00479 | 33915 ft | 478 kts | 266° |
| 2026-04-25 21:23 | 22.10464 | 54.93341 | 33916 ft | 477 kts | 266° |
| 2026-04-25 21:23 | 22.09858 | 54.86217 | 33915 ft | 477 kts | 266° |
| 2026-04-25 21:24 | 22.09247 | 54.79087 | 33916 ft | 477 kts | 266° |
| 2026-04-25 21:24 | 22.08634 | 54.71974 | 33915 ft | 476 kts | 266° |
| 2026-04-25 21:25 | 22.08021 | 54.64902 | 33914 ft | 476 kts | 266° |
| 2026-04-25 21:25 | 22.07404 | 54.57798 | 33899 ft | 476 kts | 266° |
| 2026-04-25 21:26 | 22.06786 | 54.50693 | 33886 ft | 476 kts | 266° |
| 2026-04-25 21:26 | 22.06162 | 54.43576 | 33899 ft | 476 kts | 266° |
| 2026-04-25 21:27 | 22.05534 | 54.36469 | 33902 ft | 476 kts | 266° |
| 2026-04-25 21:27 | 22.04904 | 54.29369 | 33896 ft | 476 kts | 266° |
| 2026-04-25 21:28 | 22.04271 | 54.22277 | 33894 ft | 475 kts | 266° |
| 2026-04-25 21:28 | 22.03638 | 54.15222 | 33895 ft | 476 kts | 266° |
| 2026-04-25 21:29 | 22.02999 | 54.08120 | 33893 ft | 476 kts | 266° |
| 2026-04-25 21:29 | 22.02358 | 54.01019 | 33909 ft | 476 kts | 266° |
| 2026-04-25 21:30 | 22.01714 | 53.93914 | 33905 ft | 476 kts | 266° |
| 2026-04-25 21:30 | 22.01178 | 53.88020 | 33906 ft | 476 kts | 266° |
| 2026-04-25 21:31 | 22.00415 | 53.79724 | 33906 ft | 476 kts | 266° |
| 2026-04-25 21:31 | 21.99760 | 53.72635 | 33905 ft | 476 kts | 266° |
| 2026-04-25 21:32 | 21.99101 | 53.65532 | 33905 ft | 476 kts | 266° |
| 2026-04-25 21:32 | 21.98441 | 53.58437 | 33908 ft | 476 kts | 266° |
| 2026-04-25 21:33 | 21.97780 | 53.51343 | 33908 ft | 476 kts | 266° |
| 2026-04-25 21:33 | 21.97115 | 53.44236 | 33908 ft | 476 kts | 266° |
| 2026-04-25 21:34 | 21.96450 | 53.37177 | 33907 ft | 475 kts | 266° |
| 2026-04-25 21:34 | 21.95776 | 53.30089 | 33905 ft | 476 kts | 266° |
| 2026-04-25 21:35 | 21.95098 | 53.22989 | 33909 ft | 476 kts | 266° |
| 2026-04-25 21:35 | 21.94420 | 53.15899 | 33907 ft | 476 kts | 266° |
| 2026-04-25 21:36 | 21.93739 | 53.08809 | 33907 ft | 476 kts | 266° |
| 2026-04-25 21:36 | 21.93060 | 53.01762 | 33916 ft | 476 kts | 266° |
| 2026-04-25 21:37 | 21.92490 | 52.95873 | 33915 ft | 475 kts | 266° |
| 2026-04-25 21:37 | 21.91680 | 52.87594 | 33917 ft | 475 kts | 266° |
| 2026-04-25 21:38 | 21.90976 | 52.80508 | 33915 ft | 476 kts | 266° |
| 2026-04-25 21:38 | 21.90319 | 52.73429 | 33958 ft | 473 kts | 270° |
| 2026-04-25 21:39 | 21.90357 | 52.69912 | 34297 ft | 468 kts | 277° |
| 2026-04-25 21:39 | 21.90784 | 52.66461 | 34738 ft | 462 kts | 281° |
| 2026-04-25 21:39 | 21.91332 | 52.63076 | 35154 ft | 457 kts | 282° |
| 2026-04-25 21:39 | 21.91931 | 52.59715 | 35492 ft | 455 kts | 283° |
| 2026-04-25 21:40 | 21.92542 | 52.56433 | 35783 ft | 453 kts | 283° |
| 2026-04-25 21:40 | 21.93172 | 52.53097 | 35905 ft | 455 kts | 283° |
| 2026-04-25 21:40 | 21.94437 | 52.46370 | 35915 ft | 459 kts | 283° |
| 2026-04-25 21:41 | 21.95679 | 52.39634 | 35916 ft | 459 kts | 283° |
| 2026-04-25 21:41 | 21.96910 | 52.32889 | 35916 ft | 459 kts | 283° |
| 2026-04-25 21:42 | 21.98137 | 52.26142 | 35915 ft | 459 kts | 283° |
| 2026-04-25 21:42 | 21.99361 | 52.19398 | 35915 ft | 458 kts | 283° |
| 2026-04-25 21:43 | 22.00580 | 52.12681 | 35916 ft | 459 kts | 283° |
| 2026-04-25 21:43 | 22.01800 | 52.05936 | 35916 ft | 458 kts | 283° |
| 2026-04-25 21:44 | 22.03017 | 51.99191 | 35915 ft | 458 kts | 283° |
| 2026-04-25 21:45 | 22.04838 | 51.89076 | 35916 ft | 458 kts | 283° |
| 2026-04-25 21:45 | 22.06049 | 51.82328 | 35915 ft | 458 kts | 283° |
| 2026-04-25 21:46 | 22.07256 | 51.75584 | 35915 ft | 458 kts | 283° |
| 2026-04-25 21:46 | 22.08460 | 51.68830 | 35916 ft | 458 kts | 283° |
| 2026-04-25 21:47 | 22.09654 | 51.62126 | 35924 ft | 458 kts | 283° |
| 2026-04-25 21:47 | 22.10850 | 51.55392 | 35925 ft | 457 kts | 283° |
| 2026-04-25 21:48 | 22.12047 | 51.48650 | 35924 ft | 457 kts | 283° |
| 2026-04-25 21:48 | 22.13233 | 51.41924 | 35925 ft | 456 kts | 282° |
| 2026-04-25 21:49 | 22.14418 | 51.35190 | 35925 ft | 456 kts | 283° |
| 2026-04-25 21:49 | 22.15595 | 51.28507 | 35931 ft | 456 kts | 282° |
| 2026-04-25 21:50 | 22.16777 | 51.21786 | 35943 ft | 456 kts | 282° |
| 2026-04-25 21:50 | 22.17952 | 51.15063 | 35944 ft | 456 kts | 282° |
| 2026-04-25 21:51 | 22.19129 | 51.08331 | 35944 ft | 456 kts | 282° |
| 2026-04-25 21:51 | 22.20301 | 51.01610 | 35944 ft | 455 kts | 282° |
| 2026-04-25 21:52 | 22.21464 | 50.94887 | 35943 ft | 456 kts | 282° |
| 2026-04-25 21:52 | 22.22429 | 50.89299 | 35943 ft | 455 kts | 282° |
| 2026-04-25 21:53 | 22.23591 | 50.82583 | 35944 ft | 455 kts | 282° |
| 2026-04-25 21:53 | 22.24752 | 50.75867 | 35943 ft | 456 kts | 282° |
| 2026-04-25 21:54 | 22.25910 | 50.69138 | 35943 ft | 455 kts | 282° |
| 2026-04-25 21:54 | 22.27061 | 50.62425 | 35943 ft | 455 kts | 282° |
| 2026-04-25 21:55 | 22.28211 | 50.55707 | 35942 ft | 455 kts | 282° |
| 2026-04-25 21:55 | 22.29349 | 50.49028 | 35944 ft | 456 kts | 282° |
| 2026-04-25 21:56 | 22.30495 | 50.42293 | 35943 ft | 456 kts | 282° |
| 2026-04-25 21:56 | 22.31636 | 50.35566 | 35944 ft | 455 kts | 282° |
| 2026-04-25 21:57 | 22.32779 | 50.28835 | 35943 ft | 455 kts | 282° |
| 2026-04-25 21:57 | 22.33917 | 50.22098 | 35943 ft | 455 kts | 282° |
| 2026-04-25 21:58 | 22.35048 | 50.15375 | 35943 ft | 455 kts | 282° |
| 2026-04-25 21:58 | 22.36172 | 50.08683 | 35943 ft | 455 kts | 282° |
| 2026-04-25 21:59 | 22.37300 | 50.01957 | 35943 ft | 455 kts | 282° |
| 2026-04-25 21:59 | 22.38426 | 49.95221 | 35952 ft | 455 kts | 282° |